PILOTS ONLINE: 154    ATC ONLINE: 13

KTRK

Truckee Tahoe Airport

Location

City Truckee
Country  United States
Latitude 39° 19' 12" N
Longitude 120° 8' 23" W
Elevation 5900 ft
Type Medium Airport

Map

Weather

METAR
2014/10/21 06:55
KTRK 210655Z AUTO 26004KT 10SM BKN040 02/00 A3007 RMK AO2
TAF
2014/10/21 06:21
TAF KTRK 210520Z 2106/2206 22011KT P6SM SCT080 
     FM211100 VRB03KT P6SM SCT150 
     FM211900 27009KT P6SM FEW080 BKN150 
     FM220100 VRB03KT P6SM FEW080 BKN130 
      AMD NOT SKED 2106/2112

Runways

01/19 4650 ft / 75 ft
10/28 7000 ft / 100 ft

Outbound flights

Callsign Flying to Pilot ATD/STD ETA Aircraft

Inbound flights

Callsign Flying from Pilot ATD ETA Aircraft